Time;durP1;ratioP1;P1;durP2;ratioP2;P2;SDS_P1;SDS_P2;PMS_P1;PMS_P2;Temp;Humidity;BMP_temperature;BMP_pressure;BME280_temperature;BME280_humidity;BME280_pressure;Samples;Min_cycle;Max_cycle;Signal;HPM_P1;HPM_P2
2023/10/05 00:06:32;;;;;;;5.75;1.70;;;15.50;1.00;;;;;;20247686;29;20036;-87
2023/10/05 00:16:38;;;;;;;10.88;1.85;;;15.50;1.00;;;;;;20253535;29;20048;-87
2023/10/05 00:26:39;;;;;;;7.43;1.58;;;15.40;2.20;;;;;;20245863;29;20130;-87
2023/10/05 00:36:43;;;;;;;7.30;1.77;;;15.20;11.90;;;;;;20247148;29;20071;-87
2023/10/05 00:46:48;;;;;;;5.70;1.52;;;15.30;8.60;;;;;;20243213;29;20053;-89
2023/10/05 00:56:49;;;;;;;8.20;2.03;;;15.30;3.30;;;;;;20243698;29;22129;-88
2023/10/05 01:07:06;;;;;;;8.30;2.10;;;15.30;1.30;;;;;;20239245;29;20679;-89
2023/10/05 01:17:08;;;;;;;9.07;2.08;;;15.40;1.00;;;;;;20242084;29;20052;-91
2023/10/05 01:27:10;;;;;;;5.90;1.60;;;15.30;1.00;;;;;;20242611;29;20044;-90
2023/10/05 01:37:12;;;;;;;7.13;2.28;;;15.20;1.00;;;;;;20248908;29;20048;-90
2023/10/05 01:47:16;;;;;;;8.25;1.80;;;15.20;1.00;;;;;;20250417;29;20127;-90
2023/10/05 01:57:17;;;;;;;8.40;2.58;;;15.10;1.00;;;;;;20260031;29;20040;-88
2023/10/05 02:07:19;;;;;;;6.90;1.95;;;15.00;1.00;;;;;;20276660;29;21414;-86
2023/10/05 02:17:20;;;;;;;7.93;2.08;;;15.00;1.00;;;;;;20277874;29;20276;-89
2023/10/05 02:27:26;;;;;;;9.32;2.40;;;15.00;1.00;;;;;;20259819;29;20047;-88
2023/10/05 02:37:28;;;;;;;6.60;2.08;;;14.80;1.00;;;;;;20263885;29;20052;-88
2023/10/05 02:47:29;;;;;;;6.25;1.70;;;14.70;1.00;;;;;;20266863;29;20076;-88
2023/10/05 02:57:30;;;;;;;8.85;2.10;;;14.60;2.60;;;;;;20248429;29;20052;-88
2023/10/05 03:07:30;;;;;;;5.90;1.80;;;14.60;7.00;;;;;;20260884;29;20505;-87
2023/10/05 03:17:32;;;;;;;10.68;2.20;;;14.50;11.70;;;;;;20259930;29;20191;-88
2023/10/05 03:27:32;;;;;;;6.55;1.98;;;14.40;16.50;;;;;;20253459;29;20559;-88
2023/10/05 03:37:33;;;;;;;7.97;2.33;;;14.40;15.30;;;;;;20226919;29;20297;-88
2023/10/05 03:47:37;;;;;;;7.40;2.20;;;14.40;20.10;;;;;;20253026;29;20083;-89
2023/10/05 03:57:41;;;;;;;10.30;2.60;;;14.30;26.10;;;;;;20239583;29;20052;-88
2023/10/05 04:07:42;;;;;;;7.70;2.17;;;14.30;27.50;;;;;;20243376;29;20044;-89
2023/10/05 04:17:43;;;;;;;7.90;2.25;;;14.30;25.50;;;;;;20260121;29;20171;-87
2023/10/05 04:27:46;;;;;;;8.15;2.30;;;14.20;25.30;;;;;;20254585;29;20052;-88
2023/10/05 04:37:48;;;;;;;10.75;2.70;;;14.10;23.30;;;;;;20239323;29;20028;-88
2023/10/05 04:47:48;;;;;;;8.25;2.33;;;14.10;24.40;;;;;;20249525;29;20047;-90
2023/10/05 04:57:50;;;;;;;8.23;2.42;;;14.20;18.00;;;;;;20248624;29;20044;-89
2023/10/05 05:07:52;;;;;;;12.88;2.72;;;14.10;19.70;;;;;;20274825;29;20419;-90
2023/10/05 05:17:53;;;;;;;10.63;2.50;;;13.90;36.80;;;;;;20245208;29;20048;-89
2023/10/05 05:27:55;;;;;;;7.78;2.60;;;14.00;34.60;;;;;;20242871;29;20048;-91
2023/10/05 05:37:56;;;;;;;7.53;2.65;;;13.90;51.10;;;;;;20254888;29;20557;-90
2023/10/05 05:47:57;;;;;;;9.27;2.50;;;13.90;47.50;;;;;;20258903;29;20389;-91
2023/10/05 05:57:58;;;;;;;8.25;2.80;;;13.80;53.90;;;;;;20264980;29;20148;-87
2023/10/05 06:08:01;;;;;;;12.98;2.92;;;13.90;48.90;;;;;;20263506;29;20572;-87
2023/10/05 06:18:02;;;;;;;13.57;2.92;;;13.90;46.50;;;;;;20244047;29;20063;-87
2023/10/05 06:28:03;;;;;;;7.30;2.60;;;13.90;55.20;;;;;;20257295;29;20198;-88
2023/10/05 06:38:03;;;;;;;8.13;2.40;;;14.10;32.70;;;;;;20285375;29;20052;-88
2023/10/05 06:48:05;;;;;;;12.97;2.60;;;14.00;43.50;;;;;;20272771;29;20140;-89
2023/10/05 06:58:05;;;;;;;10.82;2.80;;;14.20;26.50;;;;;;20272822;29;20044;-90
2023/10/05 07:08:07;;;;;;;7.57;2.60;;;14.30;22.80;;;;;;20269267;29;20047;-89
2023/10/05 07:18:07;;;;;;;10.88;2.60;;;14.50;15.20;;;;;;20263998;29;20111;-88
2023/10/05 07:28:14;;;;;;;10.65;2.80;;;14.70;9.40;;;;;;20281638;29;20048;-87
2023/10/05 07:38:15;;;;;;;9.95;2.88;;;14.60;15.70;;;;;;20276627;29;20047;-88
2023/10/05 07:48:16;;;;;;;8.65;2.55;;;14.80;1.80;;;;;;20263376;29;20047;-88
2023/10/05 07:58:16;;;;;;;8.60;2.53;;;14.90;4.90;;;;;;20289770;29;20111;-87
2023/10/05 08:08:17;;;;;;;9.63;2.53;;;15.10;2.00;;;;;;20356051;29;20080;-88
2023/10/05 08:18:17;;;;;;;10.73;3.00;;;15.10;1.00;;;;;;20308585;29;20583;-87
2023/10/05 08:28:20;;;;;;;10.70;2.97;;;15.30;1.60;;;;;;20256637;29;20048;-87
2023/10/05 08:38:24;;;;;;;8.98;2.70;;;15.50;1.00;;;;;;20253151;29;20140;-87
2023/10/05 08:48:36;;;;;;;7.25;2.00;;;15.80;1.00;;;;;;20262077;29;20557;-87
2023/10/05 08:58:37;;;;;;;9.45;2.17;;;16.00;1.00;;;;;;20251091;29;20048;-87
2023/10/05 09:19:29;;;;;;;6.97;2.60;;;16.30;1.00;;;;;;20269832;29;20976;-87
2023/10/05 09:29:31;;;;;;;6.65;2.20;;;16.20;1.00;;;;;;20272070;29;20044;-91
2023/10/05 09:39:43;;;;;;;7.00;1.98;;;16.20;1.00;;;;;;20268253;29;20358;-90
2023/10/05 09:49:45;;;;;;;5.85;1.92;;;16.30;1.00;;;;;;20259690;29;20044;-91
2023/10/05 10:00:00;;;;;;;6.55;2.00;;;16.50;1.00;;;;;;20275955;29;20037;-90
2023/10/05 10:10:03;;;;;;;8.73;2.10;;;16.50;1.00;;;;;;20256466;29;20131;-89
2023/10/05 10:20:18;;;;;;;7.13;1.95;;;16.80;1.00;;;;;;20281912;29;20052;-89
2023/10/05 10:30:18;;;;;;;9.85;1.88;;;16.90;1.00;;;;;;20292173;29;20048;-88
2023/10/05 10:50:24;;;;;;;6.45;2.10;;;17.40;1.00;;;;;;20284200;29;20055;-86
2023/10/05 11:00:38;;;;;;;8.55;2.20;;;17.60;1.00;;;;;;20265585;29;20045;-85
2023/10/05 11:10:42;;;;;;;11.85;1.90;;;17.80;1.00;;;;;;20290053;29;20140;-85
2023/10/05 11:20:51;;;;;;;5.95;1.85;;;18.20;1.00;;;;;;20262275;29;20552;-84
2023/10/05 11:30:53;;;;;;;8.85;1.77;;;18.70;1.00;;;;;;20253125;29;20052;-85
2023/10/05 11:40:55;;;;;;;10.02;1.95;;;18.70;1.00;;;;;;20249176;29;20040;-84
2023/10/05 11:50:57;;;;;;;8.30;1.73;;;18.30;1.00;;;;;;20256416;29;20044;-89
2023/10/05 12:01:03;;;;;;;7.88;2.15;;;18.10;1.00;;;;;;20255582;29;20080;-88
2023/10/05 12:11:03;;;;;;;8.00;1.90;;;18.50;1.00;;;;;;20251977;29;20124;-87
2023/10/05 12:21:05;;;;;;;5.95;1.80;;;18.50;1.00;;;;;;20250221;29;20068;-88
2023/10/05 12:31:06;;;;;;;6.40;1.90;;;18.20;1.00;;;;;;20260727;29;20131;-88
2023/10/05 12:41:13;;;;;;;7.68;1.70;;;18.40;1.00;;;;;;20259546;29;20544;-88
2023/10/05 12:51:13;;;;;;;7.37;1.90;;;19.10;1.00;;;;;;20224286;29;20091;-87
2023/10/05 13:01:15;;;;;;;9.35;2.22;;;19.40;1.00;;;;;;20263235;29;20064;-85
2023/10/05 13:11:18;;;;;;;5.03;1.52;;;19.80;1.00;;;;;;20277401;29;20056;-82
2023/10/05 13:21:19;;;;;;;11.40;2.42;;;19.70;1.00;;;;;;20279341;29;20097;-82
2023/10/05 13:31:20;;;;;;;4.00;1.90;;;19.60;1.00;;;;;;20278316;29;20044;-85
2023/10/05 13:41:22;;;;;;;5.82;1.70;;;19.60;1.00;;;;;;20277775;29;21498;-85
2023/10/05 13:51:23;;;;;;;4.72;2.20;;;20.20;1.00;;;;;;20302126;29;20087;-85
2023/10/05 14:01:38;;;;;;;8.07;1.95;;;19.90;1.00;;;;;;20286678;29;20075;-83
2023/10/05 14:11:40;;;;;;;7.97;1.58;;;20.00;1.00;;;;;;20286205;29;20848;-88
2023/10/05 14:21:41;;;;;;;5.70;1.70;;;20.10;1.00;;;;;;20291030;29;20484;-88
2023/10/05 14:31:44;;;;;;;5.60;1.50;;;20.20;1.00;;;;;;20290341;29;20365;-86
2023/10/05 14:41:44;;;;;;;5.85;1.73;;;20.20;1.00;;;;;;20290090;29;20384;-87
2023/10/05 14:51:45;;;;;;;5.88;1.75;;;19.50;1.00;;;;;;20292884;29;20044;-88
2023/10/05 15:01:45;;;;;;;5.82;1.73;;;19.00;1.00;;;;;;20284608;29;20062;-87
2023/10/05 15:11:47;;;;;;;8.23;2.13;;;18.80;1.00;;;;;;20279929;29;20048;-88
2023/10/05 15:21:48;;;;;;;9.45;2.22;;;18.50;1.00;;;;;;20286634;29;20052;-88
2023/10/05 15:31:49;;;;;;;6.68;1.95;;;18.30;1.00;;;;;;20289722;29;20572;-89
2023/10/05 15:41:49;;;;;;;6.18;2.00;;;18.10;1.00;;;;;;20282393;29;20099;-86
2023/10/05 15:51:50;;;;;;;6.65;1.70;;;18.20;1.00;;;;;;20287951;29;20075;-87
2023/10/05 16:01:50;;;;;;;6.18;1.80;;;17.90;1.00;;;;;;20302328;29;20187;-87
2023/10/05 16:11:51;;;;;;;4.50;1.65;;;18.00;1.00;;;;;;20276205;29;21276;-87
2023/10/05 16:21:52;;;;;;;8.23;1.75;;;17.80;1.00;;;;;;20260756;29;20064;-86
2023/10/05 16:31:53;;;;;;;7.47;1.92;;;17.70;1.00;;;;;;20288326;29;20048;-84
2023/10/05 16:41:55;;;;;;;5.07;1.83;;;17.60;1.00;;;;;;20275865;29;20044;-85
2023/10/05 16:51:56;;;;;;;8.30;2.10;;;17.60;1.00;;;;;;20257489;29;20753;-85
2023/10/05 17:01:57;;;;;;;7.32;2.47;;;17.50;1.00;;;;;;20267394;29;20051;-85
2023/10/05 17:11:59;;;;;;;5.75;2.15;;;17.30;1.00;;;;;;20268047;29;20490;-84
2023/10/05 17:22:00;;;;;;;6.53;2.00;;;17.20;1.00;;;;;;20292000;29;20048;-83
2023/10/05 17:32:03;;;;;;;7.67;2.20;;;16.80;1.00;;;;;;20272007;29;20058;-85
2023/10/05 17:42:09;;;;;;;5.97;2.17;;;16.70;1.00;;;;;;20278839;29;20428;-86
2023/10/05 17:52:09;;;;;;;8.70;2.15;;;16.70;1.00;;;;;;20279140;29;20075;-87
2023/10/05 18:02:10;;;;;;;5.10;2.00;;;16.40;1.00;;;;;;20304215;29;20064;-89
2023/10/05 18:12:13;;;;;;;5.80;2.08;;;16.10;1.00;;;;;;20299718;29;20388;-88
2023/10/05 18:22:14;;;;;;;4.55;1.90;;;15.90;1.00;;;;;;20350928;29;20056;-84
2023/10/05 18:32:14;;;;;;;8.93;2.47;;;15.80;1.00;;;;;;20360041;29;20386;-87
2023/10/05 18:42:15;;;;;;;7.50;2.10;;;15.80;1.00;;;;;;20367032;29;20056;-88
2023/10/05 18:52:16;;;;;;;8.13;2.03;;;15.70;1.00;;;;;;20275182;29;20052;-85
2023/10/05 19:02:16;;;;;;;5.30;2.10;;;15.70;1.00;;;;;;20264918;29;20082;-85
2023/10/05 19:12:18;;;;;;;4.90;2.30;;;15.70;1.00;;;;;;20259232;29;20044;-85
2023/10/05 19:22:19;;;;;;;7.57;2.60;;;15.70;1.00;;;;;;20270035;29;20580;-84
2023/10/05 19:32:19;;;;;;;7.07;2.70;;;15.50;1.00;;;;;;20270160;29;20494;-85
2023/10/05 19:42:22;;;;;;;7.60;2.58;;;15.50;1.00;;;;;;20273811;29;20075;-85
2023/10/05 19:52:22;;;;;;;7.15;2.85;;;15.40;1.00;;;;;;20271061;29;20047;-85
2023/10/05 20:02:23;;;;;;;5.32;2.70;;;15.10;1.00;;;;;;20258714;29;20092;-86
2023/10/05 20:12:25;;;;;;;9.48;3.00;;;15.00;1.00;;;;;;20282230;29;20095;-87
2023/10/05 20:22:25;;;;;;;9.32;2.65;;;15.10;1.00;;;;;;20271873;29;20536;-87
2023/10/05 20:32:26;;;;;;;5.50;2.30;;;15.20;1.00;;;;;;20284036;29;20085;-87
2023/10/05 20:42:26;;;;;;;7.03;2.55;;;15.20;1.00;;;;;;20281569;29;20052;-88
2023/10/05 20:52:27;;;;;;;6.80;2.80;;;15.30;1.00;;;;;;20283764;29;20054;-87
2023/10/05 21:02:27;;;;;;;10.38;3.53;;;15.20;1.00;;;;;;20273389;29;20139;-88
2023/10/05 21:12:28;;;;;;;7.85;3.17;;;15.20;1.00;;;;;;20280864;29;20052;-85
2023/10/05 21:22:28;;;;;;;8.57;3.20;;;15.20;1.00;;;;;;20273579;29;20127;-85
2023/10/05 21:32:29;;;;;;;7.35;3.20;;;15.20;1.00;;;;;;20279334;29;20044;-85
2023/10/05 21:42:29;;;;;;;6.68;3.40;;;15.30;1.00;;;;;;20273735;29;20048;-85
2023/10/05 21:52:32;;;;;;;8.27;3.92;;;15.30;1.00;;;;;;20266767;29;20108;-86
2023/10/05 22:02:32;;;;;;;9.40;4.13;;;15.30;1.00;;;;;;20286418;29;20037;-86
2023/10/05 22:12:34;;;;;;;8.53;4.33;;;15.30;1.00;;;;;;20264944;29;20044;-85
2023/10/05 22:22:35;;;;;;;10.85;4.78;;;15.20;1.00;;;;;;20261505;29;20056;-84
2023/10/05 22:32:36;;;;;;;11.77;5.10;;;15.20;1.00;;;;;;20256584;29;20048;-86
2023/10/05 22:42:36;;;;;;;9.98;5.55;;;15.20;1.00;;;;;;20257501;29;20124;-85
2023/10/05 22:52:37;;;;;;;11.13;4.90;;;15.10;1.00;;;;;;20261158;29;20067;-86
2023/10/05 23:02:38;;;;;;;9.63;5.40;;;15.20;1.00;;;;;;20252670;29;20048;-86
2023/10/05 23:12:40;;;;;;;13.55;5.55;;;15.20;1.00;;;;;;20261290;29;20599;-88
2023/10/05 23:22:41;;;;;;;10.98;5.82;;;15.10;1.00;;;;;;20258762;29;20159;-86
2023/10/05 23:32:46;;;;;;;13.43;5.80;;;15.00;1.00;;;;;;20267089;29;20098;-87
2023/10/05 23:42:47;;;;;;;10.85;5.65;;;14.80;1.00;;;;;;20271144;29;20052;-85
2023/10/05 23:52:54;;;;;;;11.63;5.78;;;14.80;1.00;;;;;;20271784;29;20048;-85
